sensor_id;sensor_type;location;lat;lon;timestamp;P1;durP1;ratioP1;P2;durP2;ratioP2
81952;SDS011;71454;55.476;14.282;2023-08-24T00:01:07;8.32;;;2.90;;
81952;SDS011;71454;55.476;14.282;2023-08-24T00:03:34;8.52;;;3.50;;
81952;SDS011;71454;55.476;14.282;2023-08-24T00:05:59;6.88;;;3.05;;
81952;SDS011;71454;55.476;14.282;2023-08-24T00:08:25;6.75;;;2.60;;
81952;SDS011;71454;55.476;14.282;2023-08-24T00:10:51;7.78;;;3.20;;
81952;SDS011;71454;55.476;14.282;2023-08-24T00:13:16;10.32;;;3.13;;
81952;SDS011;71454;55.476;14.282;2023-08-24T00:15:42;8.07;;;3.17;;
81952;SDS011;71454;55.476;14.282;2023-08-24T00:18:08;8.05;;;3.10;;
81952;SDS011;71454;55.476;14.282;2023-08-24T00:20:33;6.60;;;2.65;;
81952;SDS011;71454;55.476;14.282;2023-08-24T00:22:59;7.75;;;3.42;;
81952;SDS011;71454;55.476;14.282;2023-08-24T00:25:25;8.45;;;3.20;;
81952;SDS011;71454;55.476;14.282;2023-08-24T00:27:53;6.78;;;2.92;;
81952;SDS011;71454;55.476;14.282;2023-08-24T00:30:19;8.30;;;3.10;;
81952;SDS011;71454;55.476;14.282;2023-08-24T00:32:45;9.88;;;3.20;;
81952;SDS011;71454;55.476;14.282;2023-08-24T00:35:10;6.88;;;2.80;;
81952;SDS011;71454;55.476;14.282;2023-08-24T00:37:36;7.05;;;3.15;;
81952;SDS011;71454;55.476;14.282;2023-08-24T00:40:03;8.55;;;3.78;;
81952;SDS011;71454;55.476;14.282;2023-08-24T00:42:41;7.60;;;2.83;;
81952;SDS011;71454;55.476;14.282;2023-08-24T00:45:08;7.05;;;3.30;;
81952;SDS011;71454;55.476;14.282;2023-08-24T00:47:35;8.30;;;3.33;;
81952;SDS011;71454;55.476;14.282;2023-08-24T00:50:01;8.98;;;3.20;;
81952;SDS011;71454;55.476;14.282;2023-08-24T00:52:28;7.53;;;3.50;;
81952;SDS011;71454;55.476;14.282;2023-08-24T00:54:56;6.25;;;2.90;;
81952;SDS011;71454;55.476;14.282;2023-08-24T00:57:22;6.25;;;2.80;;
81952;SDS011;71454;55.476;14.282;2023-08-24T00:59:48;7.85;;;2.97;;
81952;SDS011;71454;55.476;14.282;2023-08-24T01:02:13;9.35;;;3.50;;
81952;SDS011;71454;55.476;14.282;2023-08-24T01:04:42;8.68;;;3.25;;
81952;SDS011;71454;55.476;14.282;2023-08-24T01:07:08;6.53;;;2.97;;
81952;SDS011;71454;55.476;14.282;2023-08-24T01:09:34;8.45;;;3.65;;
81952;SDS011;71454;55.476;14.282;2023-08-24T01:12:01;7.72;;;3.30;;
81952;SDS011;71454;55.476;14.282;2023-08-24T01:17:02;8.35;;;3.15;;
81952;SDS011;71454;55.476;14.282;2023-08-24T01:19:34;8.38;;;3.33;;
81952;SDS011;71454;55.476;14.282;2023-08-24T01:22:05;8.05;;;3.30;;
81952;SDS011;71454;55.476;14.282;2023-08-24T01:24:41;8.30;;;3.28;;
81952;SDS011;71454;55.476;14.282;2023-08-24T01:27:10;7.05;;;2.97;;
81952;SDS011;71454;55.476;14.282;2023-08-24T01:29:37;6.97;;;3.25;;
81952;SDS011;71454;55.476;14.282;2023-08-24T01:32:05;7.75;;;3.13;;
81952;SDS011;71454;55.476;14.282;2023-08-24T01:34:36;10.63;;;4.22;;
81952;SDS011;71454;55.476;14.282;2023-08-24T01:37:02;8.25;;;3.45;;
81952;SDS011;71454;55.476;14.282;2023-08-24T01:39:28;10.10;;;4.10;;
81952;SDS011;71454;55.476;14.282;2023-08-24T01:42:00;6.72;;;3.38;;
81952;SDS011;71454;55.476;14.282;2023-08-24T01:44:27;8.35;;;3.05;;
81952;SDS011;71454;55.476;14.282;2023-08-24T01:46:53;8.05;;;3.45;;
81952;SDS011;71454;55.476;14.282;2023-08-24T01:49:21;8.13;;;3.60;;
81952;SDS011;71454;55.476;14.282;2023-08-24T01:51:47;10.90;;;3.53;;
81952;SDS011;71454;55.476;14.282;2023-08-24T01:54:13;12.80;;;4.18;;
81952;SDS011;71454;55.476;14.282;2023-08-24T01:56:39;8.82;;;3.92;;
81952;SDS011;71454;55.476;14.282;2023-08-24T01:59:04;8.85;;;3.80;;
81952;SDS011;71454;55.476;14.282;2023-08-24T02:01:30;7.95;;;3.78;;
81952;SDS011;71454;55.476;14.282;2023-08-24T02:03:55;8.48;;;3.42;;
81952;SDS011;71454;55.476;14.282;2023-08-24T02:06:21;7.10;;;2.95;;
81952;SDS011;71454;55.476;14.282;2023-08-24T02:08:46;7.75;;;3.50;;
81952;SDS011;71454;55.476;14.282;2023-08-24T02:11:12;7.78;;;3.42;;
81952;SDS011;71454;55.476;14.282;2023-08-24T02:13:37;7.18;;;3.50;;
81952;SDS011;71454;55.476;14.282;2023-08-24T02:18:29;9.38;;;3.53;;
81952;SDS011;71454;55.476;14.282;2023-08-24T02:20:54;7.20;;;3.92;;
81952;SDS011;71454;55.476;14.282;2023-08-24T02:23:20;8.68;;;3.90;;
81952;SDS011;71454;55.476;14.282;2023-08-24T02:25:45;11.32;;;4.30;;
81952;SDS011;71454;55.476;14.282;2023-08-24T02:28:11;9.02;;;4.07;;
81952;SDS011;71454;55.476;14.282;2023-08-24T02:30:37;7.95;;;4.35;;
81952;SDS011;71454;55.476;14.282;2023-08-24T02:33:03;11.57;;;3.92;;
81952;SDS011;71454;55.476;14.282;2023-08-24T02:35:29;9.52;;;4.10;;
81952;SDS011;71454;55.476;14.282;2023-08-24T02:37:54;8.82;;;4.03;;
81952;SDS011;71454;55.476;14.282;2023-08-24T02:40:22;7.65;;;3.63;;
81952;SDS011;71454;55.476;14.282;2023-08-24T02:42:47;10.07;;;3.80;;
81952;SDS011;71454;55.476;14.282;2023-08-24T02:45:13;8.38;;;3.70;;
81952;SDS011;71454;55.476;14.282;2023-08-24T02:47:38;8.60;;;4.10;;
81952;SDS011;71454;55.476;14.282;2023-08-24T02:50:04;7.82;;;3.78;;
81952;SDS011;71454;55.476;14.282;2023-08-24T02:52:31;7.82;;;3.90;;
81952;SDS011;71454;55.476;14.282;2023-08-24T02:54:57;10.50;;;4.53;;
81952;SDS011;71454;55.476;14.282;2023-08-24T02:57:23;8.00;;;3.97;;
81952;SDS011;71454;55.476;14.282;2023-08-24T02:59:48;7.65;;;3.85;;
81952;SDS011;71454;55.476;14.282;2023-08-24T03:02:14;9.70;;;4.22;;
81952;SDS011;71454;55.476;14.282;2023-08-24T03:04:39;7.82;;;3.67;;
81952;SDS011;71454;55.476;14.282;2023-08-24T03:07:05;9.98;;;4.60;;
81952;SDS011;71454;55.476;14.282;2023-08-24T03:09:33;11.27;;;3.97;;
81952;SDS011;71454;55.476;14.282;2023-08-24T03:11:59;9.75;;;3.85;;
81952;SDS011;71454;55.476;14.282;2023-08-24T03:14:25;7.90;;;4.05;;
81952;SDS011;71454;55.476;14.282;2023-08-24T03:16:50;13.15;;;4.00;;
81952;SDS011;71454;55.476;14.282;2023-08-24T03:19:15;10.43;;;4.00;;
81952;SDS011;71454;55.476;14.282;2023-08-24T03:21:43;9.35;;;3.83;;
81952;SDS011;71454;55.476;14.282;2023-08-24T03:24:08;9.60;;;3.83;;
81952;SDS011;71454;55.476;14.282;2023-08-24T03:26:34;8.80;;;4.07;;
81952;SDS011;71454;55.476;14.282;2023-08-24T03:28:59;8.05;;;4.20;;
81952;SDS011;71454;55.476;14.282;2023-08-24T03:31:25;10.20;;;4.18;;
81952;SDS011;71454;55.476;14.282;2023-08-24T03:33:51;8.55;;;4.28;;
81952;SDS011;71454;55.476;14.282;2023-08-24T03:36:16;9.55;;;3.95;;
81952;SDS011;71454;55.476;14.282;2023-08-24T03:38:42;7.63;;;4.47;;
81952;SDS011;71454;55.476;14.282;2023-08-24T03:41:07;10.52;;;4.10;;
81952;SDS011;71454;55.476;14.282;2023-08-24T03:43:33;12.05;;;4.53;;
81952;SDS011;71454;55.476;14.282;2023-08-24T03:45:59;8.63;;;4.82;;
81952;SDS011;71454;55.476;14.282;2023-08-24T03:48:26;9.63;;;3.92;;
81952;SDS011;71454;55.476;14.282;2023-08-24T03:50:55;8.32;;;4.25;;
81952;SDS011;71454;55.476;14.282;2023-08-24T03:53:21;12.93;;;4.93;;
81952;SDS011;71454;55.476;14.282;2023-08-24T03:55:47;11.10;;;4.70;;
81952;SDS011;71454;55.476;14.282;2023-08-24T03:58:16;12.23;;;4.40;;
81952;SDS011;71454;55.476;14.282;2023-08-24T04:00:41;9.60;;;4.50;;
81952;SDS011;71454;55.476;14.282;2023-08-24T04:03:07;10.25;;;4.25;;
81952;SDS011;71454;55.476;14.282;2023-08-24T04:05:33;11.25;;;4.93;;
81952;SDS011;71454;55.476;14.282;2023-08-24T04:07:59;11.00;;;4.22;;
81952;SDS011;71454;55.476;14.282;2023-08-24T04:10:26;11.68;;;4.88;;
81952;SDS011;71454;55.476;14.282;2023-08-24T04:12:52;8.45;;;4.45;;
81952;SDS011;71454;55.476;14.282;2023-08-24T04:15:17;9.55;;;4.78;;
81952;SDS011;71454;55.476;14.282;2023-08-24T04:17:43;9.07;;;3.90;;
81952;SDS011;71454;55.476;14.282;2023-08-24T04:20:08;12.07;;;4.55;;
81952;SDS011;71454;55.476;14.282;2023-08-24T04:22:35;9.77;;;5.28;;
81952;SDS011;71454;55.476;14.282;2023-08-24T04:25:00;8.45;;;5.13;;
81952;SDS011;71454;55.476;14.282;2023-08-24T04:27:26;9.60;;;4.60;;
81952;SDS011;71454;55.476;14.282;2023-08-24T04:29:51;9.93;;;4.95;;
81952;SDS011;71454;55.476;14.282;2023-08-24T04:32:17;11.38;;;4.75;;
81952;SDS011;71454;55.476;14.282;2023-08-24T04:34:42;9.80;;;5.47;;
81952;SDS011;71454;55.476;14.282;2023-08-24T04:37:08;11.05;;;5.55;;
81952;SDS011;71454;55.476;14.282;2023-08-24T04:39:33;11.23;;;5.13;;
81952;SDS011;71454;55.476;14.282;2023-08-24T04:42:00;10.27;;;5.63;;
81952;SDS011;71454;55.476;14.282;2023-08-24T04:44:25;9.23;;;5.35;;
81952;SDS011;71454;55.476;14.282;2023-08-24T04:46:51;9.88;;;5.55;;
81952;SDS011;71454;55.476;14.282;2023-08-24T04:49:16;10.07;;;4.45;;
81952;SDS011;71454;55.476;14.282;2023-08-24T04:51:42;8.25;;;4.78;;
81952;SDS011;71454;55.476;14.282;2023-08-24T04:54:07;9.68;;;5.38;;
81952;SDS011;71454;55.476;14.282;2023-08-24T04:56:32;10.57;;;5.18;;
81952;SDS011;71454;55.476;14.282;2023-08-24T04:58:58;10.02;;;4.55;;
81952;SDS011;71454;55.476;14.282;2023-08-24T05:01:25;10.18;;;4.40;;
81952;SDS011;71454;55.476;14.282;2023-08-24T05:03:51;9.10;;;3.90;;
81952;SDS011;71454;55.476;14.282;2023-08-24T05:06:18;7.68;;;4.13;;
81952;SDS011;71454;55.476;14.282;2023-08-24T05:08:43;7.68;;;3.42;;
81952;SDS011;71454;55.476;14.282;2023-08-24T05:11:12;11.05;;;4.35;;
81952;SDS011;71454;55.476;14.282;2023-08-24T05:13:39;8.10;;;4.15;;
81952;SDS011;71454;55.476;14.282;2023-08-24T05:16:05;10.43;;;4.63;;
81952;SDS011;71454;55.476;14.282;2023-08-24T05:18:30;9.43;;;4.15;;
81952;SDS011;71454;55.476;14.282;2023-08-24T05:20:55;9.18;;;4.00;;
81952;SDS011;71454;55.476;14.282;2023-08-24T05:23:21;8.98;;;3.92;;
81952;SDS011;71454;55.476;14.282;2023-08-24T05:25:46;10.45;;;3.85;;
81952;SDS011;71454;55.476;14.282;2023-08-24T05:28:12;7.43;;;3.55;;
81952;SDS011;71454;55.476;14.282;2023-08-24T05:30:37;7.70;;;3.88;;
81952;SDS011;71454;55.476;14.282;2023-08-24T05:33:03;10.68;;;3.70;;
81952;SDS011;71454;55.476;14.282;2023-08-24T05:35:29;7.85;;;3.40;;
81952;SDS011;71454;55.476;14.282;2023-08-24T05:37:54;8.82;;;3.67;;
81952;SDS011;71454;55.476;14.282;2023-08-24T05:40:20;8.23;;;3.60;;
81952;SDS011;71454;55.476;14.282;2023-08-24T05:42:45;8.35;;;3.50;;
81952;SDS011;71454;55.476;14.282;2023-08-24T05:45:10;7.55;;;3.45;;
81952;SDS011;71454;55.476;14.282;2023-08-24T05:47:37;8.20;;;3.85;;
81952;SDS011;71454;55.476;14.282;2023-08-24T05:50:02;9.30;;;3.72;;
81952;SDS011;71454;55.476;14.282;2023-08-24T05:52:28;8.05;;;3.30;;
81952;SDS011;71454;55.476;14.282;2023-08-24T05:54:53;6.88;;;3.33;;
81952;SDS011;71454;55.476;14.282;2023-08-24T05:57:19;7.13;;;3.35;;
81952;SDS011;71454;55.476;14.282;2023-08-24T05:59:44;8.77;;;3.45;;
81952;SDS011;71454;55.476;14.282;2023-08-24T06:02:09;5.93;;;2.92;;
81952;SDS011;71454;55.476;14.282;2023-08-24T06:04:35;8.38;;;2.92;;
81952;SDS011;71454;55.476;14.282;2023-08-24T06:07:00;7.43;;;3.25;;
81952;SDS011;71454;55.476;14.282;2023-08-24T06:09:26;8.07;;;3.30;;
81952;SDS011;71454;55.476;14.282;2023-08-24T06:11:51;7.68;;;3.05;;
81952;SDS011;71454;55.476;14.282;2023-08-24T06:14:17;8.65;;;2.80;;
81952;SDS011;71454;55.476;14.282;2023-08-24T06:16:42;8.57;;;3.10;;
81952;SDS011;71454;55.476;14.282;2023-08-24T06:19:08;7.15;;;2.83;;
81952;SDS011;71454;55.476;14.282;2023-08-24T06:21:33;7.38;;;2.97;;
81952;SDS011;71454;55.476;14.282;2023-08-24T06:23:59;8.48;;;2.40;;
81952;SDS011;71454;55.476;14.282;2023-08-24T06:26:26;10.02;;;2.00;;
81952;SDS011;71454;55.476;14.282;2023-08-24T06:28:51;8.20;;;1.90;;
81952;SDS011;71454;55.476;14.282;2023-08-24T06:31:17;6.43;;;1.85;;
81952;SDS011;71454;55.476;14.282;2023-08-24T06:33:42;5.72;;;2.03;;
81952;SDS011;71454;55.476;14.282;2023-08-24T06:36:07;8.60;;;2.00;;
81952;SDS011;71454;55.476;14.282;2023-08-24T06:38:33;5.93;;;1.88;;
81952;SDS011;71454;55.476;14.282;2023-08-24T06:40:59;6.05;;;1.85;;
81952;SDS011;71454;55.476;14.282;2023-08-24T06:43:27;5.60;;;1.70;;
81952;SDS011;71454;55.476;14.282;2023-08-24T06:45:55;4.90;;;1.45;;
81952;SDS011;71454;55.476;14.282;2023-08-24T06:48:20;5.80;;;1.65;;
81952;SDS011;71454;55.476;14.282;2023-08-24T06:50:46;8.38;;;1.65;;
81952;SDS011;71454;55.476;14.282;2023-08-24T06:53:11;5.97;;;1.58;;
81952;SDS011;71454;55.476;14.282;2023-08-24T06:55:37;5.50;;;1.55;;
81952;SDS011;71454;55.476;14.282;2023-08-24T06:58:02;5.15;;;1.30;;
81952;SDS011;71454;55.476;14.282;2023-08-24T07:00:31;6.70;;;1.40;;
81952;SDS011;71454;55.476;14.282;2023-08-24T07:02:57;6.00;;;1.55;;
81952;SDS011;71454;55.476;14.282;2023-08-24T07:05:22;5.60;;;1.20;;
81952;SDS011;71454;55.476;14.282;2023-08-24T07:07:51;7.68;;;1.63;;
81952;SDS011;71454;55.476;14.282;2023-08-24T07:10:18;5.60;;;1.40;;
81952;SDS011;71454;55.476;14.282;2023-08-24T07:12:44;8.88;;;1.33;;
81952;SDS011;71454;55.476;14.282;2023-08-24T07:15:13;7.05;;;1.50;;
81952;SDS011;71454;55.476;14.282;2023-08-24T07:17:38;5.05;;;1.20;;
81952;SDS011;71454;55.476;14.282;2023-08-24T07:20:07;5.60;;;1.20;;
81952;SDS011;71454;55.476;14.282;2023-08-24T07:22:33;5.38;;;1.30;;
81952;SDS011;71454;55.476;14.282;2023-08-24T07:24:59;4.55;;;1.48;;
81952;SDS011;71454;55.476;14.282;2023-08-24T07:27:25;6.15;;;1.95;;
81952;SDS011;71454;55.476;14.282;2023-08-24T07:29:51;6.18;;;1.17;;
81952;SDS011;71454;55.476;14.282;2023-08-24T07:32:16;4.78;;;1.15;;
81952;SDS011;71454;55.476;14.282;2023-08-24T07:34:41;5.18;;;1.10;;
81952;SDS011;71454;55.476;14.282;2023-08-24T07:37:07;4.25;;;1.25;;
81952;SDS011;71454;55.476;14.282;2023-08-24T07:39:32;7.43;;;1.40;;
81952;SDS011;71454;55.476;14.282;2023-08-24T07:41:58;4.90;;;1.20;;
81952;SDS011;71454;55.476;14.282;2023-08-24T07:44:24;6.85;;;1.45;;
81952;SDS011;71454;55.476;14.282;2023-08-24T07:46:49;5.82;;;1.23;;
81952;SDS011;71454;55.476;14.282;2023-08-24T07:49:15;6.00;;;1.40;;
81952;SDS011;71454;55.476;14.282;2023-08-24T07:51:40;6.30;;;1.13;;
81952;SDS011;71454;55.476;14.282;2023-08-24T07:54:07;6.53;;;1.20;;
81952;SDS011;71454;55.476;14.282;2023-08-24T07:56:33;6.10;;;1.17;;
81952;SDS011;71454;55.476;14.282;2023-08-24T07:58:59;7.35;;;1.17;;
81952;SDS011;71454;55.476;14.282;2023-08-24T08:01:24;4.60;;;0.90;;
81952;SDS011;71454;55.476;14.282;2023-08-24T08:03:49;5.50;;;1.27;;
81952;SDS011;71454;55.476;14.282;2023-08-24T08:06:15;4.18;;;1.38;;
81952;SDS011;71454;55.476;14.282;2023-08-24T08:08:40;4.93;;;1.20;;
81952;SDS011;71454;55.476;14.282;2023-08-24T08:11:06;6.15;;;1.20;;
81952;SDS011;71454;55.476;14.282;2023-08-24T08:13:31;5.43;;;1.23;;
81952;SDS011;71454;55.476;14.282;2023-08-24T08:16:00;3.95;;;1.08;;
81952;SDS011;71454;55.476;14.282;2023-08-24T08:18:29;3.20;;;0.90;;
81952;SDS011;71454;55.476;14.282;2023-08-24T08:20:55;3.50;;;0.98;;
81952;SDS011;71454;55.476;14.282;2023-08-24T08:23:20;4.38;;;0.90;;
81952;SDS011;71454;55.476;14.282;2023-08-24T08:25:45;4.85;;;1.30;;
81952;SDS011;71454;55.476;14.282;2023-08-24T08:28:11;5.07;;;1.08;;
81952;SDS011;71454;55.476;14.282;2023-08-24T08:30:36;5.25;;;1.30;;
81952;SDS011;71454;55.476;14.282;2023-08-24T08:33:02;5.00;;;1.10;;
81952;SDS011;71454;55.476;14.282;2023-08-24T08:35:27;3.83;;;1.00;;
81952;SDS011;71454;55.476;14.282;2023-08-24T08:37:53;5.28;;;1.10;;
81952;SDS011;71454;55.476;14.282;2023-08-24T08:40:19;3.53;;;0.90;;
81952;SDS011;71454;55.476;14.282;2023-08-24T08:42:44;3.63;;;1.05;;
81952;SDS011;71454;55.476;14.282;2023-08-24T08:45:10;5.72;;;0.93;;
81952;SDS011;71454;55.476;14.282;2023-08-24T08:47:36;7.50;;;1.30;;
81952;SDS011;71454;55.476;14.282;2023-08-24T08:50:02;5.07;;;1.17;;
81952;SDS011;71454;55.476;14.282;2023-08-24T08:52:29;4.68;;;1.17;;
81952;SDS011;71454;55.476;14.282;2023-08-24T08:54:56;4.13;;;1.23;;
81952;SDS011;71454;55.476;14.282;2023-08-24T08:57:22;3.50;;;1.00;;
81952;SDS011;71454;55.476;14.282;2023-08-24T08:59:48;4.28;;;1.20;;
81952;SDS011;71454;55.476;14.282;2023-08-24T09:02:16;9.18;;;1.13;;
81952;SDS011;71454;55.476;14.282;2023-08-24T09:04:44;5.47;;;1.10;;
81952;SDS011;71454;55.476;14.282;2023-08-24T09:07:10;6.45;;;1.27;;
81952;SDS011;71454;55.476;14.282;2023-08-24T09:09:38;5.05;;;1.00;;
81952;SDS011;71454;55.476;14.282;2023-08-24T09:12:05;4.25;;;1.20;;
81952;SDS011;71454;55.476;14.282;2023-08-24T09:14:30;5.15;;;1.10;;
81952;SDS011;71454;55.476;14.282;2023-08-24T09:16:56;3.53;;;0.90;;
81952;SDS011;71454;55.476;14.282;2023-08-24T09:19:27;3.92;;;0.90;;
81952;SDS011;71454;55.476;14.282;2023-08-24T09:21:56;3.70;;;1.15;;
81952;SDS011;71454;55.476;14.282;2023-08-24T09:24:28;6.60;;;1.30;;
81952;SDS011;71454;55.476;14.282;2023-08-24T09:26:57;5.75;;;1.70;;
81952;SDS011;71454;55.476;14.282;2023-08-24T09:29:23;4.57;;;1.27;;
81952;SDS011;71454;55.476;14.282;2023-08-24T09:31:50;7.32;;;1.30;;
81952;SDS011;71454;55.476;14.282;2023-08-24T09:34:18;5.45;;;1.60;;
81952;SDS011;71454;55.476;14.282;2023-08-24T09:36:45;6.70;;;1.50;;
81952;SDS011;71454;55.476;14.282;2023-08-24T09:39:10;5.55;;;1.75;;
81952;SDS011;71454;55.476;14.282;2023-08-24T09:41:37;5.68;;;1.50;;
81952;SDS011;71454;55.476;14.282;2023-08-24T09:44:04;7.80;;;2.03;;
81952;SDS011;71454;55.476;14.282;2023-08-24T09:46:30;5.63;;;1.55;;
81952;SDS011;71454;55.476;14.282;2023-08-24T09:48:56;5.30;;;1.70;;
81952;SDS011;71454;55.476;14.282;2023-08-24T09:51:23;7.40;;;1.50;;
81952;SDS011;71454;55.476;14.282;2023-08-24T09:53:50;5.60;;;1.20;;
81952;SDS011;71454;55.476;14.282;2023-08-24T09:56:16;4.85;;;1.40;;
81952;SDS011;71454;55.476;14.282;2023-08-24T09:58:41;6.45;;;2.05;;
81952;SDS011;71454;55.476;14.282;2023-08-24T10:01:08;5.32;;;1.70;;
81952;SDS011;71454;55.476;14.282;2023-08-24T10:03:34;6.05;;;1.30;;
81952;SDS011;71454;55.476;14.282;2023-08-24T10:06:02;4.85;;;1.30;;
81952;SDS011;71454;55.476;14.282;2023-08-24T10:08:39;5.53;;;1.50;;
81952;SDS011;71454;55.476;14.282;2023-08-24T10:11:11;6.97;;;1.38;;
81952;SDS011;71454;55.476;14.282;2023-08-24T10:13:53;6.00;;;1.30;;
81952;SDS011;71454;55.476;14.282;2023-08-24T10:16:26;6.03;;;1.35;;
81952;SDS011;71454;55.476;14.282;2023-08-24T10:18:55;8.05;;;1.38;;
81952;SDS011;71454;55.476;14.282;2023-08-24T10:21:21;9.00;;;1.45;;
81952;SDS011;71454;55.476;14.282;2023-08-24T10:23:50;4.55;;;1.15;;
81952;SDS011;71454;55.476;14.282;2023-08-24T10:26:17;7.55;;;1.40;;
81952;SDS011;71454;55.476;14.282;2023-08-24T10:28:43;6.10;;;1.10;;
81952;SDS011;71454;55.476;14.282;2023-08-24T10:31:09;6.85;;;1.65;;
81952;SDS011;71454;55.476;14.282;2023-08-24T10:33:34;7.65;;;1.40;;
81952;SDS011;71454;55.476;14.282;2023-08-24T10:36:03;5.28;;;1.45;;
81952;SDS011;71454;55.476;14.282;2023-08-24T10:38:30;5.95;;;1.42;;
81952;SDS011;71454;55.476;14.282;2023-08-24T10:41:03;6.38;;;1.35;;
81952;SDS011;71454;55.476;14.282;2023-08-24T10:43:29;5.53;;;1.60;;
81952;SDS011;71454;55.476;14.282;2023-08-24T10:48:24;6.55;;;1.48;;
81952;SDS011;71454;55.476;14.282;2023-08-24T10:53:57;5.03;;;1.20;;
81952;SDS011;71454;55.476;14.282;2023-08-24T10:56:39;5.90;;;1.30;;
81952;SDS011;71454;55.476;14.282;2023-08-24T10:59:17;6.32;;;1.35;;
81952;SDS011;71454;55.476;14.282;2023-08-24T11:04:18;3.97;;;1.20;;
81952;SDS011;71454;55.476;14.282;2023-08-24T11:06:51;4.90;;;1.30;;
81952;SDS011;71454;55.476;14.282;2023-08-24T11:09:18;6.85;;;1.55;;
81952;SDS011;71454;55.476;14.282;2023-08-24T11:11:55;5.45;;;1.30;;
81952;SDS011;71454;55.476;14.282;2023-08-24T11:14:25;5.55;;;1.40;;
81952;SDS011;71454;55.476;14.282;2023-08-24T11:16:51;5.93;;;1.15;;
81952;SDS011;71454;55.476;14.282;2023-08-24T11:19:17;5.95;;;1.50;;
81952;SDS011;71454;55.476;14.282;2023-08-24T11:21:43;6.38;;;1.50;;
81952;SDS011;71454;55.476;14.282;2023-08-24T11:24:10;3.72;;;1.17;;
81952;SDS011;71454;55.476;14.282;2023-08-24T11:26:42;6.50;;;1.83;;
81952;SDS011;71454;55.476;14.282;2023-08-24T11:29:09;4.32;;;1.00;;
81952;SDS011;71454;55.476;14.282;2023-08-24T11:31:35;5.20;;;1.23;;
81952;SDS011;71454;55.476;14.282;2023-08-24T11:34:01;4.90;;;1.20;;
81952;SDS011;71454;55.476;14.282;2023-08-24T11:36:28;4.93;;;1.33;;
81952;SDS011;71454;55.476;14.282;2023-08-24T11:38:55;6.15;;;1.40;;
81952;SDS011;71454;55.476;14.282;2023-08-24T11:41:22;5.93;;;1.50;;
81952;SDS011;71454;55.476;14.282;2023-08-24T11:43:48;5.53;;;1.35;;
81952;SDS011;71454;55.476;14.282;2023-08-24T11:46:16;6.25;;;1.38;;
81952;SDS011;71454;55.476;14.282;2023-08-24T11:48:42;6.32;;;1.50;;
81952;SDS011;71454;55.476;14.282;2023-08-24T11:51:08;6.82;;;1.40;;
81952;SDS011;71454;55.476;14.282;2023-08-24T11:53:37;5.80;;;1.50;;
81952;SDS011;71454;55.476;14.282;2023-08-24T11:56:04;6.70;;;1.42;;
81952;SDS011;71454;55.476;14.282;2023-08-24T11:58:30;8.30;;;1.30;;
81952;SDS011;71454;55.476;14.282;2023-08-24T12:00:56;7.00;;;1.55;;
81952;SDS011;71454;55.476;14.282;2023-08-24T12:03:21;5.13;;;1.30;;
81952;SDS011;71454;55.476;14.282;2023-08-24T12:05:47;6.13;;;1.58;;
81952;SDS011;71454;55.476;14.282;2023-08-24T12:08:13;4.97;;;1.60;;
81952;SDS011;71454;55.476;14.282;2023-08-24T12:10:42;6.05;;;1.30;;
81952;SDS011;71454;55.476;14.282;2023-08-24T12:13:08;6.10;;;1.60;;
81952;SDS011;71454;55.476;14.282;2023-08-24T12:15:34;3.90;;;1.20;;
81952;SDS011;71454;55.476;14.282;2023-08-24T12:18:11;5.90;;;1.20;;
81952;SDS011;71454;55.476;14.282;2023-08-24T12:20:39;8.88;;;1.25;;
81952;SDS011;71454;55.476;14.282;2023-08-24T12:23:05;5.30;;;1.25;;
81952;SDS011;71454;55.476;14.282;2023-08-24T12:25:35;11.32;;;1.50;;
81952;SDS011;71454;55.476;14.282;2023-08-24T12:28:11;4.57;;;1.20;;
81952;SDS011;71454;55.476;14.282;2023-08-24T12:33:20;4.43;;;1.05;;
81952;SDS011;71454;55.476;14.282;2023-08-24T12:35:49;3.08;;;1.10;;
81952;SDS011;71454;55.476;14.282;2023-08-24T12:38:17;4.57;;;1.38;;
81952;SDS011;71454;55.476;14.282;2023-08-24T12:40:44;6.60;;;1.30;;
81952;SDS011;71454;55.476;14.282;2023-08-24T12:43:09;5.30;;;1.20;;
81952;SDS011;71454;55.476;14.282;2023-08-24T12:45:34;4.25;;;1.23;;
81952;SDS011;71454;55.476;14.282;2023-08-24T12:48:02;4.50;;;1.35;;
81952;SDS011;71454;55.476;14.282;2023-08-24T12:50:28;6.32;;;1.42;;
81952;SDS011;71454;55.476;14.282;2023-08-24T12:52:54;3.47;;;1.20;;
81952;SDS011;71454;55.476;14.282;2023-08-24T12:55:21;4.45;;;1.35;;
81952;SDS011;71454;55.476;14.282;2023-08-24T12:57:46;5.75;;;1.30;;
81952;SDS011;71454;55.476;14.282;2023-08-24T13:00:12;5.50;;;1.30;;
81952;SDS011;71454;55.476;14.282;2023-08-24T13:02:39;4.97;;;1.40;;
81952;SDS011;71454;55.476;14.282;2023-08-24T13:05:04;4.13;;;1.13;;
81952;SDS011;71454;55.476;14.282;2023-08-24T13:07:30;5.88;;;1.20;;
81952;SDS011;71454;55.476;14.282;2023-08-24T13:09:56;5.38;;;1.20;;
81952;SDS011;71454;55.476;14.282;2023-08-24T13:12:22;8.48;;;1.80;;
81952;SDS011;71454;55.476;14.282;2023-08-24T13:14:49;5.72;;;1.70;;
81952;SDS011;71454;55.476;14.282;2023-08-24T13:17:14;6.20;;;1.27;;
81952;SDS011;71454;55.476;14.282;2023-08-24T13:19:40;6.72;;;1.40;;
81952;SDS011;71454;55.476;14.282;2023-08-24T13:22:05;4.10;;;1.45;;
81952;SDS011;71454;55.476;14.282;2023-08-24T13:24:32;6.13;;;1.30;;
81952;SDS011;71454;55.476;14.282;2023-08-24T13:26:58;5.93;;;1.60;;
81952;SDS011;71454;55.476;14.282;2023-08-24T13:29:24;6.55;;;1.40;;
81952;SDS011;71454;55.476;14.282;2023-08-24T13:31:50;5.70;;;1.75;;
81952;SDS011;71454;55.476;14.282;2023-08-24T13:34:16;8.20;;;1.83;;
81952;SDS011;71454;55.476;14.282;2023-08-24T13:36:41;5.15;;;1.77;;
81952;SDS011;71454;55.476;14.282;2023-08-24T13:39:07;4.28;;;1.20;;
81952;SDS011;71454;55.476;14.282;2023-08-24T13:41:32;6.28;;;1.65;;
81952;SDS011;71454;55.476;14.282;2023-08-24T13:43:58;8.98;;;1.80;;
81952;SDS011;71454;55.476;14.282;2023-08-24T13:46:23;6.93;;;1.45;;
81952;SDS011;71454;55.476;14.282;2023-08-24T13:48:49;5.97;;;1.30;;
81952;SDS011;71454;55.476;14.282;2023-08-24T13:51:14;4.68;;;1.30;;
81952;SDS011;71454;55.476;14.282;2023-08-24T13:53:40;5.10;;;1.30;;
81952;SDS011;71454;55.476;14.282;2023-08-24T13:56:05;5.70;;;1.35;;
81952;SDS011;71454;55.476;14.282;2023-08-24T13:58:31;6.05;;;1.50;;
81952;SDS011;71454;55.476;14.282;2023-08-24T14:00:58;5.05;;;1.40;;
81952;SDS011;71454;55.476;14.282;2023-08-24T14:03:24;5.00;;;1.10;;
81952;SDS011;71454;55.476;14.282;2023-08-24T14:05:49;4.97;;;1.23;;
81952;SDS011;71454;55.476;14.282;2023-08-24T14:08:20;4.85;;;1.30;;
81952;SDS011;71454;55.476;14.282;2023-08-24T14:10:45;6.43;;;1.55;;
81952;SDS011;71454;55.476;14.282;2023-08-24T14:13:13;6.57;;;1.35;;
81952;SDS011;71454;55.476;14.282;2023-08-24T14:15:39;5.03;;;1.20;;
81952;SDS011;71454;55.476;14.282;2023-08-24T14:18:04;4.43;;;1.15;;
81952;SDS011;71454;55.476;14.282;2023-08-24T14:20:30;6.72;;;1.50;;
81952;SDS011;71454;55.476;14.282;2023-08-24T14:22:56;7.10;;;1.58;;
81952;SDS011;71454;55.476;14.282;2023-08-24T14:25:21;5.15;;;1.20;;
81952;SDS011;71454;55.476;14.282;2023-08-24T14:27:47;5.70;;;1.30;;
81952;SDS011;71454;55.476;14.282;2023-08-24T14:30:13;5.20;;;1.50;;
81952;SDS011;71454;55.476;14.282;2023-08-24T14:32:38;6.10;;;1.88;;
81952;SDS011;71454;55.476;14.282;2023-08-24T14:35:04;5.00;;;1.60;;
81952;SDS011;71454;55.476;14.282;2023-08-24T14:37:30;5.43;;;1.35;;
81952;SDS011;71454;55.476;14.282;2023-08-24T14:39:55;5.22;;;1.48;;
81952;SDS011;71454;55.476;14.282;2023-08-24T14:42:21;6.63;;;1.70;;
81952;SDS011;71454;55.476;14.282;2023-08-24T14:44:46;5.68;;;1.60;;